sensor_id;sensor_type;location;lat;lon;timestamp;P1;durP1;ratioP1;P2;durP2;ratioP2
54145;SDS011;65909;49.422;7.738;2023-04-24T00:00:53;1.13;;;0.98;;
54145;SDS011;65909;49.422;7.738;2023-04-24T00:03:21;1.05;;;0.95;;
54145;SDS011;65909;49.422;7.738;2023-04-24T00:05:49;0.60;;;0.60;;
54145;SDS011;65909;49.422;7.738;2023-04-24T00:08:16;0.90;;;0.90;;
54145;SDS011;65909;49.422;7.738;2023-04-24T00:10:41;3.05;;;0.90;;
54145;SDS011;65909;49.422;7.738;2023-04-24T00:13:07;3.72;;;0.90;;
54145;SDS011;65909;49.422;7.738;2023-04-24T00:15:32;1.05;;;0.80;;
54145;SDS011;65909;49.422;7.738;2023-04-24T00:17:58;3.15;;;1.00;;
54145;SDS011;65909;49.422;7.738;2023-04-24T00:20:23;1.42;;;0.90;;
54145;SDS011;65909;49.422;7.738;2023-04-24T00:22:49;1.58;;;1.05;;
54145;SDS011;65909;49.422;7.738;2023-04-24T00:25:14;1.10;;;0.98;;
54145;SDS011;65909;49.422;7.738;2023-04-24T00:27:39;3.50;;;1.10;;
54145;SDS011;65909;49.422;7.738;2023-04-24T00:30:05;0.77;;;0.70;;
54145;SDS011;65909;49.422;7.738;2023-04-24T00:32:31;0.90;;;0.82;;
54145;SDS011;65909;49.422;7.738;2023-04-24T00:34:56;1.17;;;1.05;;
54145;SDS011;65909;49.422;7.738;2023-04-24T00:37:21;1.80;;;1.00;;
54145;SDS011;65909;49.422;7.738;2023-04-24T00:39:47;2.45;;;1.23;;
54145;SDS011;65909;49.422;7.738;2023-04-24T00:42:12;1.15;;;1.00;;
54145;SDS011;65909;49.422;7.738;2023-04-24T00:44:38;2.05;;;1.25;;
54145;SDS011;65909;49.422;7.738;2023-04-24T00:47:03;3.65;;;1.25;;
54145;SDS011;65909;49.422;7.738;2023-04-24T00:49:29;0.77;;;0.77;;
54145;SDS011;65909;49.422;7.738;2023-04-24T00:51:55;1.42;;;1.00;;
54145;SDS011;65909;49.422;7.738;2023-04-24T00:54:21;2.17;;;1.20;;
54145;SDS011;65909;49.422;7.738;2023-04-24T00:56:47;2.78;;;1.15;;
54145;SDS011;65909;49.422;7.738;2023-04-24T00:59:13;1.23;;;1.13;;
54145;SDS011;65909;49.422;7.738;2023-04-24T01:01:41;1.60;;;1.10;;
54145;SDS011;65909;49.422;7.738;2023-04-24T01:04:07;0.80;;;0.80;;
54145;SDS011;65909;49.422;7.738;2023-04-24T01:06:34;1.90;;;1.13;;
54145;SDS011;65909;49.422;7.738;2023-04-24T01:09:03;1.38;;;0.98;;
54145;SDS011;65909;49.422;7.738;2023-04-24T01:11:29;2.00;;;1.08;;
54145;SDS011;65909;49.422;7.738;2023-04-24T01:13:54;2.13;;;1.23;;
54145;SDS011;65909;49.422;7.738;2023-04-24T01:16:21;3.80;;;1.15;;
54145;SDS011;65909;49.422;7.738;2023-04-24T01:18:46;3.95;;;1.05;;
54145;SDS011;65909;49.422;7.738;2023-04-24T01:21:13;0.85;;;0.82;;
54145;SDS011;65909;49.422;7.738;2023-04-24T01:23:40;1.10;;;1.00;;
54145;SDS011;65909;49.422;7.738;2023-04-24T01:26:05;1.10;;;0.90;;
54145;SDS011;65909;49.422;7.738;2023-04-24T01:28:30;1.65;;;1.08;;
54145;SDS011;65909;49.422;7.738;2023-04-24T01:30:56;1.20;;;0.82;;
54145;SDS011;65909;49.422;7.738;2023-04-24T01:33:21;2.67;;;0.85;;
54145;SDS011;65909;49.422;7.738;2023-04-24T01:35:47;1.33;;;1.00;;
54145;SDS011;65909;49.422;7.738;2023-04-24T01:38:13;1.88;;;1.00;;
54145;SDS011;65909;49.422;7.738;2023-04-24T01:40:39;2.70;;;0.98;;
54145;SDS011;65909;49.422;7.738;2023-04-24T01:43:04;4.75;;;2.10;;
54145;SDS011;65909;49.422;7.738;2023-04-24T01:45:30;1.63;;;0.88;;
54145;SDS011;65909;49.422;7.738;2023-04-24T01:47:56;1.67;;;0.90;;
54145;SDS011;65909;49.422;7.738;2023-04-24T01:50:22;1.17;;;0.95;;
54145;SDS011;65909;49.422;7.738;2023-04-24T01:52:47;1.65;;;0.95;;
54145;SDS011;65909;49.422;7.738;2023-04-24T01:55:12;1.48;;;0.90;;
54145;SDS011;65909;49.422;7.738;2023-04-24T01:57:38;1.02;;;0.80;;
54145;SDS011;65909;49.422;7.738;2023-04-24T02:00:04;1.40;;;0.95;;
54145;SDS011;65909;49.422;7.738;2023-04-24T02:02:31;1.38;;;0.90;;
54145;SDS011;65909;49.422;7.738;2023-04-24T02:04:57;1.65;;;0.80;;
54145;SDS011;65909;49.422;7.738;2023-04-24T02:07:22;1.70;;;1.00;;
54145;SDS011;65909;49.422;7.738;2023-04-24T02:09:48;4.07;;;1.10;;
54145;SDS011;65909;49.422;7.738;2023-04-24T02:12:13;2.50;;;1.35;;
54145;SDS011;65909;49.422;7.738;2023-04-24T02:14:39;3.97;;;1.10;;
54145;SDS011;65909;49.422;7.738;2023-04-24T02:17:05;1.42;;;0.80;;
54145;SDS011;65909;49.422;7.738;2023-04-24T02:19:31;1.85;;;1.00;;
54145;SDS011;65909;49.422;7.738;2023-04-24T02:21:59;1.45;;;1.00;;
54145;SDS011;65909;49.422;7.738;2023-04-24T02:24:25;3.42;;;1.20;;
54145;SDS011;65909;49.422;7.738;2023-04-24T02:26:50;2.42;;;1.20;;
54145;SDS011;65909;49.422;7.738;2023-04-24T02:29:16;1.50;;;0.85;;
54145;SDS011;65909;49.422;7.738;2023-04-24T02:31:41;1.83;;;1.08;;
54145;SDS011;65909;49.422;7.738;2023-04-24T02:34:06;1.42;;;0.90;;
54145;SDS011;65909;49.422;7.738;2023-04-24T02:36:32;1.25;;;0.90;;
54145;SDS011;65909;49.422;7.738;2023-04-24T02:38:57;4.05;;;1.10;;
54145;SDS011;65909;49.422;7.738;2023-04-24T02:41:22;2.05;;;1.20;;
54145;SDS011;65909;49.422;7.738;2023-04-24T02:43:48;2.17;;;0.88;;
54145;SDS011;65909;49.422;7.738;2023-04-24T02:46:13;1.60;;;1.10;;
54145;SDS011;65909;49.422;7.738;2023-04-24T02:48:39;2.45;;;1.20;;
54145;SDS011;65909;49.422;7.738;2023-04-24T02:51:04;1.15;;;1.05;;
54145;SDS011;65909;49.422;7.738;2023-04-24T02:53:31;1.50;;;0.98;;
54145;SDS011;65909;49.422;7.738;2023-04-24T02:55:56;1.05;;;0.93;;
54145;SDS011;65909;49.422;7.738;2023-04-24T02:58:22;1.60;;;0.90;;
54145;SDS011;65909;49.422;7.738;2023-04-24T03:00:47;1.58;;;1.48;;
54145;SDS011;65909;49.422;7.738;2023-04-24T03:03:13;2.33;;;1.00;;
54145;SDS011;65909;49.422;7.738;2023-04-24T03:05:38;3.33;;;1.02;;
54145;SDS011;65909;49.422;7.738;2023-04-24T03:08:04;2.90;;;1.13;;
54145;SDS011;65909;49.422;7.738;2023-04-24T03:10:30;2.25;;;1.00;;
54145;SDS011;65909;49.422;7.738;2023-04-24T03:12:55;1.55;;;1.10;;
54145;SDS011;65909;49.422;7.738;2023-04-24T03:15:20;1.83;;;1.25;;
54145;SDS011;65909;49.422;7.738;2023-04-24T03:17:46;2.00;;;1.20;;
54145;SDS011;65909;49.422;7.738;2023-04-24T03:20:12;1.48;;;0.93;;
54145;SDS011;65909;49.422;7.738;2023-04-24T03:22:37;1.73;;;1.20;;
54145;SDS011;65909;49.422;7.738;2023-04-24T03:25:03;1.27;;;1.17;;
54145;SDS011;65909;49.422;7.738;2023-04-24T03:27:29;1.23;;;1.10;;
54145;SDS011;65909;49.422;7.738;2023-04-24T03:29:55;3.97;;;1.15;;
54145;SDS011;65909;49.422;7.738;2023-04-24T03:32:21;1.15;;;1.05;;
54145;SDS011;65909;49.422;7.738;2023-04-24T03:34:47;2.60;;;1.10;;
54145;SDS011;65909;49.422;7.738;2023-04-24T03:37:13;0.90;;;0.90;;
54145;SDS011;65909;49.422;7.738;2023-04-24T03:39:38;1.10;;;1.00;;
54145;SDS011;65909;49.422;7.738;2023-04-24T03:42:04;5.30;;;1.08;;
54145;SDS011;65909;49.422;7.738;2023-04-24T03:44:29;2.00;;;1.25;;
54145;SDS011;65909;49.422;7.738;2023-04-24T03:46:55;2.10;;;1.23;;
54145;SDS011;65909;49.422;7.738;2023-04-24T03:49:20;0.75;;;0.75;;
54145;SDS011;65909;49.422;7.738;2023-04-24T03:51:45;1.10;;;1.00;;
54145;SDS011;65909;49.422;7.738;2023-04-24T03:54:11;2.47;;;1.20;;
54145;SDS011;65909;49.422;7.738;2023-04-24T03:56:36;1.77;;;1.15;;
54145;SDS011;65909;49.422;7.738;2023-04-24T03:59:01;1.73;;;1.10;;
54145;SDS011;65909;49.422;7.738;2023-04-24T04:01:27;1.15;;;1.05;;
54145;SDS011;65909;49.422;7.738;2023-04-24T04:03:53;2.42;;;1.58;;
54145;SDS011;65909;49.422;7.738;2023-04-24T04:06:18;1.48;;;1.15;;
54145;SDS011;65909;49.422;7.738;2023-04-24T04:08:44;1.73;;;1.10;;
54145;SDS011;65909;49.422;7.738;2023-04-24T04:11:09;1.98;;;1.10;;
54145;SDS011;65909;49.422;7.738;2023-04-24T04:13:35;1.20;;;1.10;;
54145;SDS011;65909;49.422;7.738;2023-04-24T04:16:00;1.45;;;0.95;;
54145;SDS011;65909;49.422;7.738;2023-04-24T04:18:26;0.90;;;0.90;;
54145;SDS011;65909;49.422;7.738;2023-04-24T04:20:51;1.75;;;1.10;;
54145;SDS011;65909;49.422;7.738;2023-04-24T04:23:16;1.90;;;1.27;;
54145;SDS011;65909;49.422;7.738;2023-04-24T04:25:42;1.48;;;1.10;;
54145;SDS011;65909;49.422;7.738;2023-04-24T04:28:07;1.45;;;1.10;;
54145;SDS011;65909;49.422;7.738;2023-04-24T04:30:33;1.50;;;1.20;;
54145;SDS011;65909;49.422;7.738;2023-04-24T04:32:58;1.83;;;1.17;;
54145;SDS011;65909;49.422;7.738;2023-04-24T04:35:24;3.20;;;1.38;;
54145;SDS011;65909;49.422;7.738;2023-04-24T04:37:50;1.50;;;1.02;;
54145;SDS011;65909;49.422;7.738;2023-04-24T04:40:16;2.05;;;1.00;;
54145;SDS011;65909;49.422;7.738;2023-04-24T04:42:42;2.83;;;1.42;;
54145;SDS011;65909;49.422;7.738;2023-04-24T04:45:10;2.88;;;1.30;;
54145;SDS011;65909;49.422;7.738;2023-04-24T04:47:36;1.83;;;1.35;;
54145;SDS011;65909;49.422;7.738;2023-04-24T04:50:02;3.30;;;1.27;;
54145;SDS011;65909;49.422;7.738;2023-04-24T04:52:28;1.10;;;1.00;;
54145;SDS011;65909;49.422;7.738;2023-04-24T04:54:54;1.88;;;1.40;;
54145;SDS011;65909;49.422;7.738;2023-04-24T04:57:20;1.00;;;1.00;;
54145;SDS011;65909;49.422;7.738;2023-04-24T04:59:46;1.50;;;1.27;;
54145;SDS011;65909;49.422;7.738;2023-04-24T05:02:11;1.30;;;1.20;;
54145;SDS011;65909;49.422;7.738;2023-04-24T05:04:37;1.27;;;1.17;;
54145;SDS011;65909;49.422;7.738;2023-04-24T05:07:02;2.15;;;1.30;;
54145;SDS011;65909;49.422;7.738;2023-04-24T05:09:28;1.90;;;1.70;;
54145;SDS011;65909;49.422;7.738;2023-04-24T05:11:54;1.15;;;1.05;;
54145;SDS011;65909;49.422;7.738;2023-04-24T05:14:20;2.10;;;1.30;;
54145;SDS011;65909;49.422;7.738;2023-04-24T05:16:46;3.92;;;1.75;;
54145;SDS011;65909;49.422;7.738;2023-04-24T05:19:11;1.90;;;1.73;;
54145;SDS011;65909;49.422;7.738;2023-04-24T05:21:38;1.25;;;1.10;;
54145;SDS011;65909;49.422;7.738;2023-04-24T05:24:04;1.60;;;1.23;;
54145;SDS011;65909;49.422;7.738;2023-04-24T05:26:30;1.95;;;1.52;;
54145;SDS011;65909;49.422;7.738;2023-04-24T05:28:56;1.52;;;1.40;;
54145;SDS011;65909;49.422;7.738;2023-04-24T05:31:21;2.85;;;1.70;;
54145;SDS011;65909;49.422;7.738;2023-04-24T05:33:47;2.03;;;1.70;;
54145;SDS011;65909;49.422;7.738;2023-04-24T05:36:12;1.60;;;1.48;;
54145;SDS011;65909;49.422;7.738;2023-04-24T05:38:38;1.83;;;1.60;;
54145;SDS011;65909;49.422;7.738;2023-04-24T05:41:03;1.40;;;1.30;;
54145;SDS011;65909;49.422;7.738;2023-04-24T05:43:29;2.25;;;1.65;;
54145;SDS011;65909;49.422;7.738;2023-04-24T05:45:54;1.63;;;1.30;;
54145;SDS011;65909;49.422;7.738;2023-04-24T05:48:20;1.88;;;1.70;;
54145;SDS011;65909;49.422;7.738;2023-04-24T05:50:46;3.35;;;1.92;;
54145;SDS011;65909;49.422;7.738;2023-04-24T05:53:12;2.15;;;1.60;;
54145;SDS011;65909;49.422;7.738;2023-04-24T05:55:38;1.77;;;1.45;;
54145;SDS011;65909;49.422;7.738;2023-04-24T05:58:03;2.55;;;2.30;;
54145;SDS011;65909;49.422;7.738;2023-04-24T06:00:29;1.90;;;1.77;;
54145;SDS011;65909;49.422;7.738;2023-04-24T06:02:55;2.03;;;1.85;;
54145;SDS011;65909;49.422;7.738;2023-04-24T06:05:20;2.45;;;2.25;;
54145;SDS011;65909;49.422;7.738;2023-04-24T06:07:46;3.72;;;2.30;;
54145;SDS011;65909;49.422;7.738;2023-04-24T06:10:12;3.40;;;2.38;;
54145;SDS011;65909;49.422;7.738;2023-04-24T06:12:37;3.22;;;2.38;;
54145;SDS011;65909;49.422;7.738;2023-04-24T06:15:03;3.65;;;2.85;;
54145;SDS011;65909;49.422;7.738;2023-04-24T06:17:29;2.72;;;2.03;;
54145;SDS011;65909;49.422;7.738;2023-04-24T06:19:55;3.45;;;2.42;;
54145;SDS011;65909;49.422;7.738;2023-04-24T06:22:20;4.03;;;2.42;;
54145;SDS011;65909;49.422;7.738;2023-04-24T06:24:46;3.90;;;2.50;;
54145;SDS011;65909;49.422;7.738;2023-04-24T06:27:13;3.63;;;2.55;;
54145;SDS011;65909;49.422;7.738;2023-04-24T06:29:38;4.10;;;2.20;;
54145;SDS011;65909;49.422;7.738;2023-04-24T06:32:03;4.47;;;2.67;;
54145;SDS011;65909;49.422;7.738;2023-04-24T06:34:29;6.03;;;2.55;;
54145;SDS011;65909;49.422;7.738;2023-04-24T06:36:55;4.10;;;2.95;;
54145;SDS011;65909;49.422;7.738;2023-04-24T06:39:21;3.15;;;2.65;;
54145;SDS011;65909;49.422;7.738;2023-04-24T06:41:46;3.85;;;2.90;;
54145;SDS011;65909;49.422;7.738;2023-04-24T06:44:12;3.65;;;2.28;;
54145;SDS011;65909;49.422;7.738;2023-04-24T06:46:39;2.85;;;2.63;;
54145;SDS011;65909;49.422;7.738;2023-04-24T06:49:05;3.05;;;2.28;;
54145;SDS011;65909;49.422;7.738;2023-04-24T06:51:31;2.42;;;2.10;;
54145;SDS011;65909;49.422;7.738;2023-04-24T06:53:57;4.18;;;3.00;;
54145;SDS011;65909;49.422;7.738;2023-04-24T06:56:23;4.05;;;2.53;;
54145;SDS011;65909;49.422;7.738;2023-04-24T06:58:49;4.45;;;2.35;;
54145;SDS011;65909;49.422;7.738;2023-04-24T07:01:16;3.25;;;2.30;;
54145;SDS011;65909;49.422;7.738;2023-04-24T07:03:41;2.53;;;1.95;;
54145;SDS011;65909;49.422;7.738;2023-04-24T07:06:06;3.72;;;2.92;;
54145;SDS011;65909;49.422;7.738;2023-04-24T07:08:32;3.97;;;3.38;;
54145;SDS011;65909;49.422;7.738;2023-04-24T07:10:58;4.10;;;2.67;;
54145;SDS011;65909;49.422;7.738;2023-04-24T07:13:24;3.22;;;2.67;;
54145;SDS011;65909;49.422;7.738;2023-04-24T07:15:49;3.33;;;2.50;;
54145;SDS011;65909;49.422;7.738;2023-04-24T07:18:15;3.42;;;2.40;;
54145;SDS011;65909;49.422;7.738;2023-04-24T07:20:41;2.40;;;2.20;;
54145;SDS011;65909;49.422;7.738;2023-04-24T07:23:07;3.40;;;2.97;;
54145;SDS011;65909;49.422;7.738;2023-04-24T07:25:32;3.25;;;2.67;;
54145;SDS011;65909;49.422;7.738;2023-04-24T07:27:58;3.25;;;2.53;;
54145;SDS011;65909;49.422;7.738;2023-04-24T07:30:23;2.58;;;2.28;;
54145;SDS011;65909;49.422;7.738;2023-04-24T07:32:49;2.78;;;2.15;;
54145;SDS011;65909;49.422;7.738;2023-04-24T07:35:14;2.67;;;2.20;;
54145;SDS011;65909;49.422;7.738;2023-04-24T07:37:39;2.65;;;2.28;;
54145;SDS011;65909;49.422;7.738;2023-04-24T07:40:05;2.42;;;2.10;;
54145;SDS011;65909;49.422;7.738;2023-04-24T07:42:31;4.05;;;2.17;;
54145;SDS011;65909;49.422;7.738;2023-04-24T07:44:59;2.90;;;2.47;;
54145;SDS011;65909;49.422;7.738;2023-04-24T07:47:24;3.05;;;2.80;;
54145;SDS011;65909;49.422;7.738;2023-04-24T07:49:50;3.90;;;2.95;;
54145;SDS011;65909;49.422;7.738;2023-04-24T07:52:15;2.33;;;2.03;;
54145;SDS011;65909;49.422;7.738;2023-04-24T07:54:41;2.67;;;1.95;;
54145;SDS011;65909;49.422;7.738;2023-04-24T07:57:07;1.98;;;1.88;;
54145;SDS011;65909;49.422;7.738;2023-04-24T07:59:33;3.35;;;1.95;;
54145;SDS011;65909;49.422;7.738;2023-04-24T08:01:58;3.38;;;3.08;;
54145;SDS011;65909;49.422;7.738;2023-04-24T08:04:26;2.17;;;1.80;;
54145;SDS011;65909;49.422;7.738;2023-04-24T08:06:51;2.88;;;1.77;;
54145;SDS011;65909;49.422;7.738;2023-04-24T08:09:16;2.35;;;2.15;;
54145;SDS011;65909;49.422;7.738;2023-04-24T08:11:43;3.78;;;2.35;;
54145;SDS011;65909;49.422;7.738;2023-04-24T08:14:08;2.67;;;1.80;;
54145;SDS011;65909;49.422;7.738;2023-04-24T08:16:34;5.38;;;3.08;;
54145;SDS011;65909;49.422;7.738;2023-04-24T08:18:59;4.03;;;1.85;;
54145;SDS011;65909;49.422;7.738;2023-04-24T08:21:25;2.50;;;2.22;;
54145;SDS011;65909;49.422;7.738;2023-04-24T08:23:52;2.80;;;2.22;;
54145;SDS011;65909;49.422;7.738;2023-04-24T08:26:17;3.28;;;1.77;;
54145;SDS011;65909;49.422;7.738;2023-04-24T08:28:42;4.05;;;1.92;;
54145;SDS011;65909;49.422;7.738;2023-04-24T08:31:08;3.40;;;2.30;;
54145;SDS011;65909;49.422;7.738;2023-04-24T08:33:33;4.25;;;2.33;;
54145;SDS011;65909;49.422;7.738;2023-04-24T08:36:02;2.25;;;1.83;;
54145;SDS011;65909;49.422;7.738;2023-04-24T08:38:28;4.35;;;2.25;;
54145;SDS011;65909;49.422;7.738;2023-04-24T08:40:54;2.70;;;2.05;;
54145;SDS011;65909;49.422;7.738;2023-04-24T08:43:21;4.22;;;2.10;;
54145;SDS011;65909;49.422;7.738;2023-04-24T08:45:48;3.33;;;2.50;;
54145;SDS011;65909;49.422;7.738;2023-04-24T08:48:13;3.25;;;2.30;;
54145;SDS011;65909;49.422;7.738;2023-04-24T08:50:40;2.85;;;2.13;;
54145;SDS011;65909;49.422;7.738;2023-04-24T08:53:07;4.07;;;2.45;;
54145;SDS011;65909;49.422;7.738;2023-04-24T08:55:33;3.00;;;2.13;;
54145;SDS011;65909;49.422;7.738;2023-04-24T08:57:59;3.47;;;1.92;;
54145;SDS011;65909;49.422;7.738;2023-04-24T09:00:24;2.80;;;2.10;;
54145;SDS011;65909;49.422;7.738;2023-04-24T09:02:52;3.35;;;1.80;;
54145;SDS011;65909;49.422;7.738;2023-04-24T09:05:18;2.20;;;1.92;;
54145;SDS011;65909;49.422;7.738;2023-04-24T09:07:54;2.38;;;1.98;;
54145;SDS011;65909;49.422;7.738;2023-04-24T09:10:21;4.05;;;2.40;;
54145;SDS011;65909;49.422;7.738;2023-04-24T09:12:50;3.00;;;2.28;;
54145;SDS011;65909;49.422;7.738;2023-04-24T09:15:15;2.25;;;2.05;;
54145;SDS011;65909;49.422;7.738;2023-04-24T09:17:41;2.50;;;2.10;;
54145;SDS011;65909;49.422;7.738;2023-04-24T09:20:08;2.75;;;2.30;;
54145;SDS011;65909;49.422;7.738;2023-04-24T09:22:33;2.58;;;1.80;;
54145;SDS011;65909;49.422;7.738;2023-04-24T09:25:00;3.10;;;2.22;;
54145;SDS011;65909;49.422;7.738;2023-04-24T09:27:28;3.50;;;2.40;;
54145;SDS011;65909;49.422;7.738;2023-04-24T09:29:54;5.00;;;2.58;;
54145;SDS011;65909;49.422;7.738;2023-04-24T09:32:21;2.45;;;2.03;;
54145;SDS011;65909;49.422;7.738;2023-04-24T09:34:48;2.22;;;2.03;;
54145;SDS011;65909;49.422;7.738;2023-04-24T09:37:29;2.25;;;2.03;;
54145;SDS011;65909;49.422;7.738;2023-04-24T09:40:11;3.15;;;2.17;;
54145;SDS011;65909;49.422;7.738;2023-04-24T09:42:38;4.55;;;2.10;;
54145;SDS011;65909;49.422;7.738;2023-04-24T09:45:04;2.15;;;1.95;;
54145;SDS011;65909;49.422;7.738;2023-04-24T09:47:35;1.92;;;1.67;;
54145;SDS011;65909;49.422;7.738;2023-04-24T09:50:37;6.22;;;2.78;;
54145;SDS011;65909;49.422;7.738;2023-04-24T09:53:02;2.53;;;2.15;;
54145;SDS011;65909;49.422;7.738;2023-04-24T09:55:29;2.45;;;2.08;;
54145;SDS011;65909;49.422;7.738;2023-04-24T09:57:56;2.92;;;2.05;;
54145;SDS011;65909;49.422;7.738;2023-04-24T10:00:23;2.67;;;1.98;;
54145;SDS011;65909;49.422;7.738;2023-04-24T10:03:01;2.50;;;1.83;;
54145;SDS011;65909;49.422;7.738;2023-04-24T10:05:31;5.80;;;1.90;;
54145;SDS011;65909;49.422;7.738;2023-04-24T10:08:03;4.00;;;2.08;;
54145;SDS011;65909;49.422;7.738;2023-04-24T10:10:34;1.95;;;1.75;;
54145;SDS011;65909;49.422;7.738;2023-04-24T10:13:03;2.53;;;1.75;;
54145;SDS011;65909;49.422;7.738;2023-04-24T10:15:29;2.42;;;1.77;;
54145;SDS011;65909;49.422;7.738;2023-04-24T10:17:55;4.03;;;2.30;;
54145;SDS011;65909;49.422;7.738;2023-04-24T10:20:23;1.73;;;1.60;;
54145;SDS011;65909;49.422;7.738;2023-04-24T10:22:51;2.85;;;1.95;;
54145;SDS011;65909;49.422;7.738;2023-04-24T10:25:21;2.28;;;2.08;;
54145;SDS011;65909;49.422;7.738;2023-04-24T10:27:49;1.92;;;1.70;;
54145;SDS011;65909;49.422;7.738;2023-04-24T10:30:16;1.83;;;1.60;;
54145;SDS011;65909;49.422;7.738;2023-04-24T10:32:42;2.05;;;1.50;;
54145;SDS011;65909;49.422;7.738;2023-04-24T10:35:08;2.72;;;2.00;;
54145;SDS011;65909;49.422;7.738;2023-04-24T10:37:36;1.92;;;1.70;;
54145;SDS011;65909;49.422;7.738;2023-04-24T10:40:03;3.67;;;2.05;;
54145;SDS011;65909;49.422;7.738;2023-04-24T10:42:30;3.42;;;1.98;;
54145;SDS011;65909;49.422;7.738;2023-04-24T10:44:55;3.08;;;2.13;;
54145;SDS011;65909;49.422;7.738;2023-04-24T10:47:22;2.55;;;1.90;;
54145;SDS011;65909;49.422;7.738;2023-04-24T10:49:49;3.13;;;2.15;;
54145;SDS011;65909;49.422;7.738;2023-04-24T10:52:16;6.40;;;2.30;;
54145;SDS011;65909;49.422;7.738;2023-04-24T10:54:42;4.80;;;2.25;;
54145;SDS011;65909;49.422;7.738;2023-04-24T10:57:25;3.38;;;2.30;;
54145;SDS011;65909;49.422;7.738;2023-04-24T11:02:54;3.78;;;3.03;;
54145;SDS011;65909;49.422;7.738;2023-04-24T11:05:21;11.77;;;2.78;;
54145;SDS011;65909;49.422;7.738;2023-04-24T11:10:45;3.83;;;2.53;;
54145;SDS011;65909;49.422;7.738;2023-04-24T11:13:15;3.20;;;2.60;;
54145;SDS011;65909;49.422;7.738;2023-04-24T11:15:41;3.40;;;2.15;;
54145;SDS011;65909;49.422;7.738;2023-04-24T11:18:13;3.20;;;2.25;;
54145;SDS011;65909;49.422;7.738;2023-04-24T11:20:43;2.40;;;2.13;;
54145;SDS011;65909;49.422;7.738;2023-04-24T11:23:09;2.13;;;1.90;;
54145;SDS011;65909;49.422;7.738;2023-04-24T11:25:37;1.70;;;1.60;;
54145;SDS011;65909;49.422;7.738;2023-04-24T11:28:03;3.88;;;2.10;;
54145;SDS011;65909;49.422;7.738;2023-04-24T11:30:31;2.85;;;1.85;;
54145;SDS011;65909;49.422;7.738;2023-04-24T11:33:04;1.42;;;1.30;;
54145;SDS011;65909;49.422;7.738;2023-04-24T11:35:30;2.33;;;1.30;;
54145;SDS011;65909;49.422;7.738;2023-04-24T11:38:02;4.40;;;2.03;;
54145;SDS011;65909;49.422;7.738;2023-04-24T11:40:28;2.03;;;1.40;;
54145;SDS011;65909;49.422;7.738;2023-04-24T11:42:53;1.50;;;1.30;;
54145;SDS011;65909;49.422;7.738;2023-04-24T11:45:26;1.73;;;1.30;;
54145;SDS011;65909;49.422;7.738;2023-04-24T11:47:52;2.10;;;1.65;;
54145;SDS011;65909;49.422;7.738;2023-04-24T11:50:22;1.70;;;1.30;;
54145;SDS011;65909;49.422;7.738;2023-04-24T11:52:50;2.53;;;1.33;;
54145;SDS011;65909;49.422;7.738;2023-04-24T11:57:43;1.20;;;1.10;;
54145;SDS011;65909;49.422;7.738;2023-04-24T12:00:15;1.10;;;1.00;;
54145;SDS011;65909;49.422;7.738;2023-04-24T12:02:40;1.33;;;1.20;;
54145;SDS011;65909;49.422;7.738;2023-04-24T12:05:06;1.85;;;1.13;;
54145;SDS011;65909;49.422;7.738;2023-04-24T12:07:32;1.80;;;1.27;;
54145;SDS011;65909;49.422;7.738;2023-04-24T12:10:07;1.10;;;1.00;;
54145;SDS011;65909;49.422;7.738;2023-04-24T12:12:34;1.67;;;1.20;;
54145;SDS011;65909;49.422;7.738;2023-04-24T12:15:00;2.10;;;1.48;;
54145;SDS011;65909;49.422;7.738;2023-04-24T12:17:27;2.72;;;1.27;;
54145;SDS011;65909;49.422;7.738;2023-04-24T12:19:57;1.52;;;1.42;;
54145;SDS011;65909;49.422;7.738;2023-04-24T12:25:17;1.40;;;1.30;;
54145;SDS011;65909;49.422;7.738;2023-04-24T12:27:44;1.45;;;1.35;;
54145;SDS011;65909;49.422;7.738;2023-04-24T12:30:11;1.40;;;1.23;;
54145;SDS011;65909;49.422;7.738;2023-04-24T12:32:45;1.90;;;1.50;;
54145;SDS011;65909;49.422;7.738;2023-04-24T12:35:11;2.05;;;1.20;;
54145;SDS011;65909;49.422;7.738;2023-04-24T12:37:47;1.58;;;1.35;;
54145;SDS011;65909;49.422;7.738;2023-04-24T12:40:13;1.52;;;1.30;;
54145;SDS011;65909;49.422;7.738;2023-04-24T12:42:43;2.22;;;1.30;;
54145;SDS011;65909;49.422;7.738;2023-04-24T12:45:10;2.20;;;1.52;;
54145;SDS011;65909;49.422;7.738;2023-04-24T12:47:39;1.52;;;1.40;;
54145;SDS011;65909;49.422;7.738;2023-04-24T12:50:06;2.10;;;1.80;;
54145;SDS011;65909;49.422;7.738;2023-04-24T12:52:33;2.75;;;1.85;;
54145;SDS011;65909;49.422;7.738;2023-04-24T12:54:59;1.48;;;1.35;;
54145;SDS011;65909;49.422;7.738;2023-04-24T12:57:25;2.45;;;1.88;;
54145;SDS011;65909;49.422;7.738;2023-04-24T12:59:55;1.70;;;1.50;;
54145;SDS011;65909;49.422;7.738;2023-04-24T13:02:22;1.48;;;1.35;;
54145;SDS011;65909;49.422;7.738;2023-04-24T13:04:48;3.80;;;2.28;;
54145;SDS011;65909;49.422;7.738;2023-04-24T13:07:14;4.60;;;1.92;;
54145;SDS011;65909;49.422;7.738;2023-04-24T13:09:39;3.50;;;1.85;;
54145;SDS011;65909;49.422;7.738;2023-04-24T13:12:05;2.30;;;1.80;;
54145;SDS011;65909;49.422;7.738;2023-04-24T13:14:31;2.03;;;1.73;;
54145;SDS011;65909;49.422;7.738;2023-04-24T13:16:57;3.63;;;1.80;;
54145;SDS011;65909;49.422;7.738;2023-04-24T13:19:26;2.95;;;2.40;;
54145;SDS011;65909;49.422;7.738;2023-04-24T13:21:52;3.60;;;2.50;;
54145;SDS011;65909;49.422;7.738;2023-04-24T13:24:21;4.03;;;2.28;;
54145;SDS011;65909;49.422;7.738;2023-04-24T13:26:51;3.38;;;2.22;;
54145;SDS011;65909;49.422;7.738;2023-04-24T13:29:17;4.43;;;2.30;;
54145;SDS011;65909;49.422;7.738;2023-04-24T13:31:42;4.13;;;2.33;;
54145;SDS011;65909;49.422;7.738;2023-04-24T13:34:08;3.80;;;2.47;;
54145;SDS011;65909;49.422;7.738;2023-04-24T13:36:33;3.85;;;2.50;;
54145;SDS011;65909;49.422;7.738;2023-04-24T13:38:59;3.40;;;2.38;;
54145;SDS011;65909;49.422;7.738;2023-04-24T13:41:24;3.45;;;2.33;;
54145;SDS011;65909;49.422;7.738;2023-04-24T13:43:49;3.33;;;2.50;;
54145;SDS011;65909;49.422;7.738;2023-04-24T13:46:15;2.70;;;2.38;;
54145;SDS011;65909;49.422;7.738;2023-04-24T13:48:41;3.53;;;2.10;;
54145;SDS011;65909;49.422;7.738;2023-04-24T13:51:06;2.30;;;1.42;;
54145;SDS011;65909;49.422;7.738;2023-04-24T13:53:32;3.50;;;1.75;;
54145;SDS011;65909;49.422;7.738;2023-04-24T13:56:00;3.90;;;2.25;;
54145;SDS011;65909;49.422;7.738;2023-04-24T13:58:26;2.83;;;2.20;;
54145;SDS011;65909;49.422;7.738;2023-04-24T14:00:52;3.55;;;2.47;;
54145;SDS011;65909;49.422;7.738;2023-04-24T14:03:17;2.80;;;2.38;;
54145;SDS011;65909;49.422;7.738;2023-04-24T14:05:43;4.03;;;3.03;;
54145;SDS011;65909;49.422;7.738;2023-04-24T14:08:08;4.07;;;2.78;;
54145;SDS011;65909;49.422;7.738;2023-04-24T14:10:33;4.25;;;2.80;;
54145;SDS011;65909;49.422;7.738;2023-04-24T14:12:59;3.85;;;2.70;;
54145;SDS011;65909;49.422;7.738;2023-04-24T14:15:24;4.95;;;2.33;;
54145;SDS011;65909;49.422;7.738;2023-04-24T14:17:50;3.60;;;2.30;;
54145;SDS011;65909;49.422;7.738;2023-04-24T14:20:15;5.70;;;3.08;;
54145;SDS011;65909;49.422;7.738;2023-04-24T14:22:41;6.55;;;2.72;;
54145;SDS011;65909;49.422;7.738;2023-04-24T14:25:06;4.97;;;2.60;;
54145;SDS011;65909;49.422;7.738;2023-04-24T14:27:32;4.70;;;3.10;;
54145;SDS011;65909;49.422;7.738;2023-04-24T14:29:59;3.35;;;2.63;;
54145;SDS011;65909;49.422;7.738;2023-04-24T14:32:24;5.20;;;3.63;;
54145;SDS011;65909;49.422;7.738;2023-04-24T14:34:50;3.25;;;2.50;;
54145;SDS011;65909;49.422;7.738;2023-04-24T14:37:16;3.08;;;2.10;;
54145;SDS011;65909;49.422;7.738;2023-04-24T14:39:41;4.53;;;2.83;;
54145;SDS011;65909;49.422;7.738;2023-04-24T14:42:07;3.35;;;2.60;;
54145;SDS011;65909;49.422;7.738;2023-04-24T14:44:32;4.35;;;2.80;;
54145;SDS011;65909;49.422;7.738;2023-04-24T14:46:58;4.15;;;2.28;;
54145;SDS011;65909;49.422;7.738;2023-04-24T14:49:23;3.28;;;2.25;;
54145;SDS011;65909;49.422;7.738;2023-04-24T14:51:49;3.85;;;2.67;;
54145;SDS011;65909;49.422;7.738;2023-04-24T14:54:14;4.22;;;2.42;;